Time;durP1;ratioP1;P1;durP2;ratioP2;P2;SDS_P1;SDS_P2;PMS_P1;PMS_P2;Temp;Humidity;BMP_temperature;BMP_pressure;BME280_temperature;BME280_humidity;BME280_pressure;Samples;Min_cycle;Max_cycle;Signal;HPM_P1;HPM_P2
2023/06/04 00:01:50;;;;;;;5.37;4.87;;;12.40;99.90;;;;;;4995494;28;20619;-66
2023/06/04 00:04:16;;;;;;;4.87;4.57;;;12.30;99.90;;;;;;4995321;28;20185;-66
2023/06/04 00:06:41;;;;;;;5.20;4.90;;;12.30;99.90;;;;;;4995274;28;20193;-66
2023/06/04 00:09:07;;;;;;;5.13;4.83;;;12.30;99.90;;;;;;4995361;28;20177;-66
2023/06/04 00:11:33;;;;;;;5.03;4.83;;;12.20;99.90;;;;;;4993995;28;20215;-66
2023/06/04 00:13:59;;;;;;;4.60;4.40;;;12.20;99.90;;;;;;4995331;28;20627;-66
2023/06/04 00:16:25;;;;;;;4.47;4.20;;;12.10;99.90;;;;;;4993502;28;20209;-66
2023/06/04 00:18:51;;;;;;;4.10;3.90;;;12.10;99.90;;;;;;4995216;28;20177;-66
2023/06/04 00:21:16;;;;;;;4.33;4.13;;;12.10;99.90;;;;;;4994721;28;20192;-66
2023/06/04 00:23:42;;;;;;;4.20;4.00;;;12.10;99.90;;;;;;4995096;28;20248;-66
2023/06/04 00:26:08;;;;;;;4.57;4.37;;;12.00;99.90;;;;;;4994995;28;20744;-66
2023/06/04 00:28:33;;;;;;;4.80;4.40;;;12.00;99.90;;;;;;4995140;28;20181;-66
2023/06/04 00:30:59;;;;;;;4.73;4.43;;;12.00;99.90;;;;;;4994737;28;20181;-66
2023/06/04 00:33:24;;;;;;;4.80;4.60;;;12.00;99.90;;;;;;4995058;28;20220;-66
2023/06/04 00:35:50;;;;;;;4.93;4.53;;;11.90;99.90;;;;;;4994318;28;20208;-66
2023/06/04 00:38:16;;;;;;;5.60;5.30;;;11.90;99.90;;;;;;4994913;28;20196;-66
2023/06/04 00:40:41;;;;;;;5.67;5.00;;;11.90;99.90;;;;;;4994607;28;20255;-66
2023/06/04 00:43:08;;;;;;;4.50;4.20;;;11.90;99.90;;;;;;4993683;28;20528;-66
2023/06/04 00:45:34;;;;;;;5.53;5.23;;;11.80;99.90;;;;;;4994731;28;20173;-66
2023/06/04 00:48:00;;;;;;;5.00;4.60;;;11.80;99.90;;;;;;4994871;28;20279;-66
2023/06/04 00:50:25;;;;;;;5.10;4.50;;;11.70;99.90;;;;;;4994393;28;20231;-66
2023/06/04 00:52:51;;;;;;;4.60;4.30;;;11.70;99.90;;;;;;4994493;28;20224;-66
2023/06/04 00:55:20;;;;;;;4.80;4.50;;;11.70;99.90;;;;;;4994714;28;20251;-66
2023/06/04 00:57:46;;;;;;;4.30;4.10;;;11.60;99.90;;;;;;4993951;28;20671;-66
2023/06/04 01:00:12;;;;;;;4.80;4.50;;;11.60;99.90;;;;;;4993528;28;20208;-66
2023/06/04 01:02:40;;;;;;;4.50;4.30;;;11.50;99.90;;;;;;4994564;28;20259;-66
2023/06/04 01:05:29;;;;;;;4.90;4.50;;;11.50;99.90;;;;;;4994373;28;20177;-66
2023/06/04 01:07:57;;;;;;;5.00;4.60;;;11.50;99.90;;;;;;4993203;28;20189;-66
2023/06/04 01:10:23;;;;;;;6.97;4.53;;;11.50;99.90;;;;;;4993879;28;20177;-66
2023/06/04 01:12:48;;;;;;;4.43;4.13;;;11.40;99.90;;;;;;4994338;28;20181;-66
2023/06/04 01:15:14;;;;;;;4.77;4.47;;;11.40;99.90;;;;;;4994654;28;20259;-66
2023/06/04 01:17:42;;;;;;;4.53;4.13;;;11.40;99.90;;;;;;4994476;28;20173;-66
2023/06/04 01:20:32;;;;;;;4.60;4.40;;;11.30;99.90;;;;;;4994020;28;20239;-66
2023/06/04 01:23:42;;;;;;;4.73;4.43;;;11.30;99.90;;;;;;4994279;28;20177;-66
2023/06/04 01:26:10;;;;;;;5.23;4.93;;;11.30;99.90;;;;;;4963673;28;20229;-66
2023/06/04 01:28:36;;;;;;;5.13;4.77;;;11.30;99.90;;;;;;4974693;28;20182;-66
2023/06/04 01:31:04;;;;;;;5.40;5.10;;;11.30;99.90;;;;;;4974488;28;20216;-66
2023/06/04 01:33:29;;;;;;;5.87;5.37;;;11.20;99.90;;;;;;4974706;28;20197;-66
2023/06/04 01:35:55;;;;;;;5.17;4.87;;;11.20;99.90;;;;;;4974400;28;20525;-67
2023/06/04 01:38:21;;;;;;;5.80;5.50;;;11.20;99.90;;;;;;4981074;28;20232;-66
2023/06/04 01:40:47;;;;;;;6.07;5.77;;;11.20;99.90;;;;;;4993485;28;20252;-66
2023/06/04 01:43:13;;;;;;;6.87;6.47;;;11.30;99.90;;;;;;4993915;28;20177;-67
2023/06/04 01:45:38;;;;;;;6.07;5.77;;;11.20;99.90;;;;;;4993631;28;20204;-66
2023/06/04 01:48:05;;;;;;;6.97;6.57;;;11.30;99.90;;;;;;4993501;28;20192;-66
2023/06/04 01:50:31;;;;;;;6.20;5.80;;;11.30;99.90;;;;;;4993434;28;20219;-66
2023/06/04 01:52:57;;;;;;;6.03;5.63;;;11.30;99.90;;;;;;4993424;28;20220;-66
2023/06/04 01:55:24;;;;;;;7.40;7.00;;;11.30;99.90;;;;;;4993288;28;20208;-66
2023/06/04 01:57:50;;;;;;;7.50;6.93;;;11.30;99.90;;;;;;4993513;28;20654;-66
2023/06/04 02:00:17;;;;;;;6.07;5.77;;;11.30;99.90;;;;;;4993324;28;20210;-66
2023/06/04 02:02:48;;;;;;;6.80;6.40;;;11.20;99.90;;;;;;4993370;28;20169;-66
2023/06/04 02:05:14;;;;;;;5.57;5.27;;;11.20;99.90;;;;;;4993222;28;20192;-67
2023/06/04 02:07:42;;;;;;;6.20;5.80;;;11.20;99.90;;;;;;4993196;28;20216;-66
2023/06/04 02:10:15;;;;;;;6.00;5.70;;;11.20;99.90;;;;;;4993076;28;20177;-66
2023/06/04 02:12:56;;;;;;;5.73;5.43;;;11.30;99.90;;;;;;4993210;28;20177;-66
2023/06/04 02:15:23;;;;;;;5.07;4.47;;;11.30;99.90;;;;;;4993031;28;20196;-66
2023/06/04 02:17:50;;;;;;;4.80;4.50;;;11.40;99.90;;;;;;4992956;28;20577;-66
2023/06/04 02:20:16;;;;;;;4.67;4.43;;;11.40;99.90;;;;;;4992754;28;20725;-67
2023/06/04 02:22:42;;;;;;;4.90;4.60;;;11.40;99.90;;;;;;4993245;28;20173;-66
2023/06/04 02:25:11;;;;;;;5.40;5.10;;;11.50;99.90;;;;;;4993111;28;20248;-66
2023/06/04 02:27:37;;;;;;;5.23;4.83;;;11.50;99.90;;;;;;4992777;28;20196;-66
2023/06/04 02:30:05;;;;;;;5.63;5.23;;;11.50;99.90;;;;;;4993274;28;20179;-74
2023/06/04 02:32:30;;;;;;;5.27;4.87;;;11.50;99.90;;;;;;4992633;28;20185;-70
2023/06/04 02:34:56;;;;;;;5.27;4.87;;;11.40;99.90;;;;;;4993077;28;20219;-70
2023/06/04 02:37:22;;;;;;;5.43;5.03;;;11.40;99.90;;;;;;4994215;28;20218;-74
2023/06/04 02:39:48;;;;;;;7.83;7.43;;;11.40;99.90;;;;;;4993789;28;20176;-70
2023/06/04 02:42:13;;;;;;;7.23;6.90;;;11.40;99.90;;;;;;4993781;28;20177;-71
2023/06/04 02:44:39;;;;;;;6.77;6.37;;;11.40;99.90;;;;;;4993825;28;20181;-71
2023/06/04 02:47:05;;;;;;;6.67;6.17;;;11.30;99.90;;;;;;4993449;28;20205;-73
2023/06/04 02:49:31;;;;;;;7.00;6.57;;;11.20;99.90;;;;;;4992929;28;20180;-75
2023/06/04 02:51:56;;;;;;;6.53;6.20;;;11.20;99.90;;;;;;4993445;28;20185;-70
2023/06/04 02:54:22;;;;;;;7.80;7.40;;;11.10;99.90;;;;;;4993090;28;20643;-70
2023/06/04 02:56:49;;;;;;;6.67;6.27;;;11.00;99.90;;;;;;4993101;28;20193;-71
2023/06/04 02:59:14;;;;;;;6.10;5.70;;;11.00;99.90;;;;;;4993448;28;20185;-72
2023/06/04 03:01:40;;;;;;;5.63;5.33;;;11.00;99.90;;;;;;4992871;28;20639;-72
2023/06/04 03:04:09;;;;;;;5.10;4.80;;;11.00;99.90;;;;;;4992381;28;20188;-70
2023/06/04 03:06:38;;;;;;;4.67;4.37;;;11.00;99.90;;;;;;4993551;28;20197;-69
2023/06/04 03:09:03;;;;;;;5.13;4.90;;;10.90;99.90;;;;;;4993492;28;20204;-72
2023/06/04 03:11:29;;;;;;;6.57;6.07;;;10.90;99.90;;;;;;4993481;28;20173;-71
2023/06/04 03:13:55;;;;;;;6.53;6.23;;;10.90;99.90;;;;;;4992234;28;20211;-70
2023/06/04 03:16:21;;;;;;;5.87;5.57;;;10.90;99.90;;;;;;4993062;28;20208;-73
2023/06/04 03:18:47;;;;;;;4.67;4.47;;;10.90;99.90;;;;;;4993252;28;20176;-69
2023/06/04 03:21:13;;;;;;;5.80;5.40;;;10.90;99.90;;;;;;4993098;28;20180;-71
2023/06/04 03:23:39;;;;;;;6.10;5.80;;;10.90;99.90;;;;;;4992676;28;20177;-70
2023/06/04 03:26:05;;;;;;;5.93;5.50;;;10.80;99.90;;;;;;4993025;28;20254;-72
2023/06/04 03:28:32;;;;;;;4.60;4.30;;;10.80;99.90;;;;;;4993376;28;20530;-73
2023/06/04 03:30:59;;;;;;;4.40;4.20;;;10.80;99.90;;;;;;4991094;28;20196;-71
2023/06/04 03:33:24;;;;;;;5.00;4.60;;;10.80;99.90;;;;;;4993007;28;20260;-71
2023/06/04 03:35:52;;;;;;;4.47;4.17;;;10.80;99.90;;;;;;4992986;28;20593;-73
2023/06/04 03:38:18;;;;;;;4.70;4.37;;;10.90;99.90;;;;;;4993217;28;20648;-73
2023/06/04 03:40:45;;;;;;;4.30;4.10;;;10.90;99.90;;;;;;4992750;28;20179;-71
2023/06/04 03:43:11;;;;;;;4.70;4.40;;;10.90;99.90;;;;;;4993134;28;20657;-72
2023/06/04 03:45:36;;;;;;;5.20;4.80;;;10.90;99.90;;;;;;4993252;28;20193;-73
2023/06/04 03:48:02;;;;;;;4.40;4.20;;;10.90;99.90;;;;;;4993189;28;20239;-73
2023/06/04 03:50:28;;;;;;;5.10;4.60;;;10.90;99.90;;;;;;4993041;28;20185;-73
2023/06/04 03:52:53;;;;;;;4.87;4.50;;;10.90;99.90;;;;;;4992923;28;20176;-69
2023/06/04 03:55:19;;;;;;;4.80;4.50;;;10.90;99.90;;;;;;4992934;28;20208;-71
2023/06/04 03:57:45;;;;;;;4.40;4.10;;;10.90;99.90;;;;;;4991787;28;20177;-73
2023/06/04 04:00:12;;;;;;;4.53;4.33;;;10.90;99.90;;;;;;4992700;28;20215;-72
2023/06/04 04:02:42;;;;;;;5.03;4.73;;;10.90;99.90;;;;;;4993204;28;20185;-71
2023/06/04 04:05:08;;;;;;;5.63;4.97;;;10.90;99.90;;;;;;4993130;28;20189;-70
2023/06/04 04:07:35;;;;;;;5.33;4.93;;;10.90;99.90;;;;;;4992662;28;20189;-70
2023/06/04 04:10:00;;;;;;;4.83;4.53;;;10.90;99.90;;;;;;4992438;28;20228;-72
2023/06/04 04:12:26;;;;;;;5.30;4.90;;;10.90;99.90;;;;;;4991531;28;20215;-69
2023/06/04 04:14:51;;;;;;;4.83;4.53;;;11.00;99.90;;;;;;4990443;28;20209;-66
2023/06/04 04:17:17;;;;;;;4.80;4.50;;;10.90;99.90;;;;;;4991633;28;20207;-66
2023/06/04 04:19:43;;;;;;;4.73;4.43;;;11.00;99.90;;;;;;4990979;28;20188;-66
2023/06/04 04:22:11;;;;;;;4.83;4.53;;;11.00;99.90;;;;;;4990431;28;20251;-66
2023/06/04 04:24:37;;;;;;;4.90;4.60;;;11.00;99.90;;;;;;4991607;28;20217;-66
2023/06/04 04:27:03;;;;;;;4.80;4.50;;;11.10;99.90;;;;;;4991425;28;20664;-66
2023/06/04 04:29:32;;;;;;;4.80;4.40;;;11.20;99.90;;;;;;4990896;28;20595;-66
2023/06/04 04:32:00;;;;;;;4.80;4.50;;;11.30;99.90;;;;;;4991439;28;20173;-66
2023/06/04 04:34:26;;;;;;;5.03;4.53;;;11.40;99.90;;;;;;4992893;28;20173;-66
2023/06/04 04:36:52;;;;;;;5.13;4.73;;;11.60;99.90;;;;;;4994935;28;20308;-66
2023/06/04 04:39:27;;;;;;;4.77;4.37;;;11.90;99.90;;;;;;4994847;28;20305;-66
2023/06/04 04:41:54;;;;;;;4.70;4.30;;;12.10;99.90;;;;;;4994897;28;20176;-66
2023/06/04 04:44:20;;;;;;;4.87;4.57;;;12.40;99.90;;;;;;4994798;28;20650;-66
2023/06/04 04:46:48;;;;;;;4.80;4.50;;;12.60;99.90;;;;;;4994750;28;20266;-66
2023/06/04 04:49:13;;;;;;;5.27;4.97;;;12.70;99.90;;;;;;4994720;28;20268;-66
2023/06/04 04:51:39;;;;;;;4.80;4.50;;;13.00;99.90;;;;;;4994369;28;20606;-66
2023/06/04 04:54:04;;;;;;;4.80;4.20;;;13.20;99.90;;;;;;4994743;28;20189;-67
2023/06/04 04:56:34;;;;;;;4.70;4.33;;;13.50;99.90;;;;;;4994539;28;20291;-66
2023/06/04 04:59:00;;;;;;;5.00;4.60;;;13.90;99.90;;;;;;4994555;28;20173;-66
2023/06/04 05:01:26;;;;;;;5.40;4.47;;;14.30;99.90;;;;;;4994509;28;20555;-66
2023/06/04 05:03:52;;;;;;;4.67;4.37;;;14.80;99.90;;;;;;4994165;28;20263;-67
2023/06/04 05:06:17;;;;;;;4.50;4.20;;;15.10;99.90;;;;;;4994448;28;20204;-66
2023/06/04 05:08:43;;;;;;;6.17;4.30;;;15.50;99.90;;;;;;4994473;28;20183;-66
2023/06/04 05:11:09;;;;;;;4.67;4.27;;;15.80;99.90;;;;;;4994162;28;20181;-67
2023/06/04 05:13:34;;;;;;;4.47;4.03;;;16.00;99.90;;;;;;4994335;28;20235;-67
2023/06/04 05:16:06;;;;;;;4.77;4.20;;;16.20;99.90;;;;;;4994083;28;20213;-67
2023/06/04 05:18:41;;;;;;;4.73;4.33;;;16.60;99.90;;;;;;4994106;28;20181;-66
2023/06/04 05:21:07;;;;;;;5.03;4.63;;;16.70;99.90;;;;;;4994035;28;20665;-67
2023/06/04 05:23:37;;;;;;;5.33;4.83;;;16.70;99.90;;;;;;4994268;28;20227;-66
2023/06/04 05:26:03;;;;;;;4.57;4.27;;;16.60;99.90;;;;;;4993912;28;20212;-67
2023/06/04 05:28:29;;;;;;;4.53;4.10;;;16.40;99.90;;;;;;4994126;28;20272;-66
2023/06/04 05:30:59;;;;;;;4.47;4.07;;;16.30;99.90;;;;;;4993669;28;20312;-66
2023/06/04 05:33:25;;;;;;;4.40;4.10;;;16.30;99.90;;;;;;4994148;28;20639;-66
2023/06/04 05:35:57;;;;;;;4.30;4.00;;;16.40;99.90;;;;;;4993589;28;20299;-67
2023/06/04 05:38:25;;;;;;;5.10;4.20;;;16.30;99.90;;;;;;4994043;28;20180;-67
2023/06/04 05:40:52;;;;;;;4.70;4.30;;;16.30;99.90;;;;;;4993748;28;20311;-67
2023/06/04 05:43:17;;;;;;;5.53;4.97;;;16.30;99.90;;;;;;4993629;28;20172;-67
2023/06/04 05:45:43;;;;;;;4.10;3.80;;;16.40;99.90;;;;;;4993258;28;20201;-66
2023/06/04 05:48:08;;;;;;;4.00;3.70;;;16.70;99.90;;;;;;4993720;28;20180;-66
2023/06/04 05:50:34;;;;;;;4.28;3.97;;;17.00;99.90;;;;;;4993461;28;20175;-67
2023/06/04 05:53:00;;;;;;;4.35;4.03;;;17.40;99.90;;;;;;4993623;28;20579;-67
2023/06/04 05:55:28;;;;;;;3.83;3.63;;;17.70;99.90;;;;;;4992279;28;20216;-67
2023/06/04 05:57:54;;;;;;;4.95;4.60;;;17.90;99.90;;;;;;4993132;28;20639;-67
2023/06/04 06:00:20;;;;;;;5.82;5.43;;;18.20;99.90;;;;;;4993325;28;20200;-67
2023/06/04 06:02:48;;;;;;;5.13;4.78;;;18.60;99.90;;;;;;4993462;28;20652;-67
2023/06/04 06:05:16;;;;;;;3.83;3.53;;;18.70;99.90;;;;;;4993476;28;20280;-67
2023/06/04 06:07:42;;;;;;;4.32;3.95;;;19.00;99.90;;;;;;4993278;28;20200;-67
2023/06/04 06:10:08;;;;;;;3.90;3.60;;;19.20;99.90;;;;;;4992758;28;20220;-67
2023/06/04 06:12:34;;;;;;;4.40;4.10;;;19.30;99.90;;;;;;4993395;28;20264;-66
2023/06/04 06:14:59;;;;;;;4.93;4.63;;;19.40;99.90;;;;;;4993117;28;20636;-67
2023/06/04 06:17:25;;;;;;;4.10;3.80;;;19.70;99.90;;;;;;4991846;28;20197;-66
2023/06/04 06:19:51;;;;;;;5.18;4.78;;;20.00;99.90;;;;;;4992651;28;20169;-67
2023/06/04 06:22:17;;;;;;;4.75;4.43;;;20.30;99.90;;;;;;4993218;28;20173;-67
2023/06/04 06:24:43;;;;;;;4.40;4.00;;;20.70;99.90;;;;;;4992998;28;20176;-67
2023/06/04 06:27:10;;;;;;;3.78;3.47;;;21.10;99.90;;;;;;4992829;28;20231;-67
2023/06/04 06:29:35;;;;;;;3.90;3.60;;;21.30;99.90;;;;;;4992724;28;20536;-67
2023/06/04 06:32:02;;;;;;;3.60;3.30;;;21.70;99.90;;;;;;4992897;28;20165;-67
2023/06/04 06:34:28;;;;;;;5.85;3.38;;;22.00;99.90;;;;;;4990000;28;20187;-67
2023/06/04 06:36:53;;;;;;;3.47;3.17;;;22.10;99.90;;;;;;4973193;28;20189;-67
2023/06/04 06:39:19;;;;;;;3.65;3.35;;;22.30;99.90;;;;;;4973064;28;20175;-67
2023/06/04 06:41:45;;;;;;;3.63;3.30;;;22.30;99.90;;;;;;4973015;28;20178;-67
2023/06/04 06:44:11;;;;;;;4.30;3.90;;;22.30;99.90;;;;;;4980871;28;20180;-67
2023/06/04 06:46:36;;;;;;;4.20;3.85;;;22.70;99.90;;;;;;4992568;28;20558;-67
2023/06/04 06:49:02;;;;;;;3.30;3.10;;;23.00;99.90;;;;;;4992400;28;20173;-67
2023/06/04 06:51:28;;;;;;;3.60;3.30;;;23.30;99.90;;;;;;4992315;28;20179;-67
2023/06/04 06:53:53;;;;;;;4.75;3.42;;;23.30;99.90;;;;;;4992349;28;20698;-67
2023/06/04 06:56:19;;;;;;;4.80;3.00;;;23.60;99.90;;;;;;4991751;28;20737;-67
2023/06/04 06:58:45;;;;;;;3.97;3.65;;;23.70;99.90;;;;;;4991936;28;20221;-67
2023/06/04 07:01:11;;;;;;;5.03;3.72;;;24.00;99.90;;;;;;4992024;28;20173;-67
2023/06/04 07:03:39;;;;;;;3.30;3.05;;;24.30;99.90;;;;;;4992366;28;20172;-67
2023/06/04 07:06:05;;;;;;;6.70;3.47;;;24.50;99.90;;;;;;4992126;28;20200;-67
2023/06/04 07:08:31;;;;;;;3.72;3.35;;;24.70;99.90;;;;;;4992361;28;20635;-67
2023/06/04 07:10:57;;;;;;;3.55;3.35;;;25.10;99.90;;;;;;4991762;28;20185;-67
2023/06/04 07:13:23;;;;;;;5.45;4.95;;;25.30;99.90;;;;;;4992517;28;20191;-67
2023/06/04 07:15:50;;;;;;;5.30;4.32;;;25.90;99.90;;;;;;4992139;28;20240;-67
2023/06/04 07:18:15;;;;;;;5.22;4.90;;;26.10;99.90;;;;;;4992160;28;20296;-67
2023/06/04 07:20:41;;;;;;;3.85;3.38;;;26.40;99.90;;;;;;4991893;28;20165;-67
2023/06/04 07:23:06;;;;;;;3.15;2.95;;;26.80;99.90;;;;;;4991679;28;20211;-67
2023/06/04 07:25:32;;;;;;;3.15;2.95;;;26.60;98.20;;;;;;4991677;28;20188;-67
2023/06/04 07:27:58;;;;;;;3.03;2.83;;;26.70;99.90;;;;;;4992262;28;20187;-67
2023/06/04 07:30:26;;;;;;;2.78;2.53;;;26.60;99.80;;;;;;4991839;28;20268;-67
2023/06/04 07:32:52;;;;;;;3.80;3.03;;;26.70;99.80;;;;;;4991450;28;20223;-67
2023/06/04 07:35:18;;;;;;;3.42;3.10;;;26.80;99.90;;;;;;4991848;28;20200;-67
2023/06/04 07:37:48;;;;;;;3.22;2.92;;;27.20;99.60;;;;;;4991626;28;20251;-67
2023/06/04 07:40:15;;;;;;;3.58;3.28;;;27.50;98.70;;;;;;4991607;28;20169;-67
2023/06/04 07:42:42;;;;;;;3.05;2.85;;;27.60;97.10;;;;;;4991888;28;20248;-67
2023/06/04 07:45:08;;;;;;;3.13;2.92;;;27.60;98.50;;;;;;4991745;28;20611;-67
2023/06/04 07:47:35;;;;;;;3.22;3.03;;;27.90;96.00;;;;;;4991094;28;20335;-67
2023/06/04 07:50:01;;;;;;;4.88;2.95;;;27.60;95.20;;;;;;4991151;28;20647;-67
2023/06/04 07:52:27;;;;;;;4.32;3.00;;;27.60;96.30;;;;;;4991946;28;20304;-67
2023/06/04 07:54:52;;;;;;;5.03;4.63;;;28.00;97.00;;;;;;4990300;28;20204;-67
2023/06/04 07:57:18;;;;;;;3.58;2.88;;;28.10;95.40;;;;;;4991708;28;20200;-67
2023/06/04 07:59:43;;;;;;;3.17;2.97;;;28.50;97.90;;;;;;4990870;28;20581;-68
2023/06/04 08:02:09;;;;;;;3.50;3.20;;;29.00;95.10;;;;;;4992047;28;20173;-68
2023/06/04 08:04:35;;;;;;;2.88;2.67;;;29.10;94.60;;;;;;4991795;28;20200;-67
2023/06/04 08:07:00;;;;;;;5.43;3.22;;;29.40;96.20;;;;;;4991382;28;20592;-67
2023/06/04 08:09:26;;;;;;;3.08;2.80;;;29.50;93.50;;;;;;4994512;28;20180;-67
2023/06/04 08:11:52;;;;;;;3.33;2.78;;;29.60;94.60;;;;;;4994544;28;20243;-67
2023/06/04 08:14:18;;;;;;;3.30;2.60;;;29.70;92.90;;;;;;4995451;28;20210;-67
2023/06/04 08:16:44;;;;;;;2.90;2.70;;;29.80;93.20;;;;;;4995091;28;20200;-67
2023/06/04 08:19:09;;;;;;;3.28;3.08;;;30.30;92.30;;;;;;4995078;28;20173;-67
2023/06/04 08:21:35;;;;;;;5.75;3.40;;;30.40;91.50;;;;;;4995231;28;20169;-67
2023/06/04 08:24:02;;;;;;;3.25;3.05;;;30.40;91.70;;;;;;4995021;28;20512;-67
2023/06/04 08:26:27;;;;;;;4.07;3.65;;;30.70;93.30;;;;;;4994692;28;20212;-67
2023/06/04 08:28:53;;;;;;;4.32;4.03;;;30.70;91.30;;;;;;4995044;28;20219;-67
2023/06/04 08:31:18;;;;;;;2.85;2.63;;;31.00;90.40;;;;;;4994893;28;20180;-67
2023/06/04 08:33:47;;;;;;;4.60;4.20;;;30.40;90.40;;;;;;4994784;28;20201;-67
2023/06/04 08:36:13;;;;;;;3.88;3.60;;;30.30;90.90;;;;;;4994782;28;20232;-67
2023/06/04 08:38:39;;;;;;;3.17;2.95;;;30.60;86.50;;;;;;4994868;28;20165;-67
2023/06/04 08:41:34;;;;;;;2.90;2.70;;;31.10;85.40;;;;;;4994791;28;20183;-67
2023/06/04 08:44:01;;;;;;;3.88;2.83;;;30.70;87.00;;;;;;4994292;28;20180;-67
2023/06/04 08:46:28;;;;;;;3.10;2.80;;;31.20;87.70;;;;;;4994943;28;20686;-67
2023/06/04 08:49:00;;;;;;;3.03;2.72;;;31.40;84.80;;;;;;4992563;28;20242;-67
2023/06/04 08:51:26;;;;;;;3.80;3.47;;;31.10;85.20;;;;;;4994430;28;20173;-67
2023/06/04 08:53:53;;;;;;;3.47;2.85;;;31.20;84.50;;;;;;4994351;28;20195;-67
2023/06/04 08:56:22;;;;;;;3.22;2.92;;;31.50;79.60;;;;;;4994478;28;20216;-67
2023/06/04 08:58:48;;;;;;;3.45;2.70;;;31.60;81.70;;;;;;4994570;28;20705;-67
2023/06/04 09:01:14;;;;;;;4.72;2.60;;;31.70;82.80;;;;;;4993715;28;20338;-67
2023/06/04 09:03:41;;;;;;;3.13;2.92;;;32.00;73.50;;;;;;4994474;28;20196;-67
2023/06/04 09:06:08;;;;;;;2.83;2.60;;;31.80;78.70;;;;;;4994353;28;20519;-67
2023/06/04 09:08:38;;;;;;;3.10;2.80;;;32.20;77.40;;;;;;4994413;28;20540;-67
2023/06/04 09:11:07;;;;;;;4.20;2.83;;;32.30;77.50;;;;;;4993810;28;20180;-67
2023/06/04 09:13:34;;;;;;;2.88;2.67;;;32.10;75.10;;;;;;4992359;28;20192;-67
2023/06/04 09:16:04;;;;;;;3.00;2.75;;;32.10;70.70;;;;;;4993784;28;20208;-67
2023/06/04 09:18:30;;;;;;;2.65;2.45;;;31.90;73.40;;;;;;4994219;28;20173;-67
2023/06/04 09:21:08;;;;;;;2.80;2.60;;;31.60;72.10;;;;;;4993036;28;20169;-68
2023/06/04 09:23:43;;;;;;;3.00;2.70;;;31.20;74.00;;;;;;4994103;28;20821;-67
2023/06/04 09:26:09;;;;;;;3.38;2.72;;;30.70;70.00;;;;;;4991928;28;20214;-67
2023/06/04 09:28:39;;;;;;;3.08;2.78;;;30.60;72.70;;;;;;4994002;28;20231;-68
2023/06/04 09:31:16;;;;;;;3.33;3.03;;;30.90;71.00;;;;;;4993741;28;20204;-67
2023/06/04 09:33:47;;;;;;;2.88;2.65;;;30.50;66.50;;;;;;4993800;28;20587;-67
2023/06/04 09:36:13;;;;;;;4.20;3.30;;;30.20;71.20;;;;;;4992794;28;20602;-67
2023/06/04 09:38:39;;;;;;;3.05;2.85;;;30.10;71.30;;;;;;4993692;28;20169;-67
2023/06/04 09:41:14;;;;;;;2.75;2.50;;;30.00;74.80;;;;;;4993144;28;20718;-67
2023/06/04 09:43:40;;;;;;;3.60;2.72;;;30.20;70.90;;;;;;4993856;28;20180;-66
2023/06/04 09:46:15;;;;;;;2.70;2.50;;;30.30;68.10;;;;;;4993437;28;20223;-67
2023/06/04 09:48:42;;;;;;;3.05;2.50;;;30.10;65.40;;;;;;4993924;28;20226;-67
2023/06/04 09:51:09;;;;;;;4.57;3.70;;;30.40;72.10;;;;;;4993136;28;20185;-67
2023/06/04 09:53:35;;;;;;;2.60;2.40;;;30.30;69.80;;;;;;4993591;28;20545;-68
2023/06/04 09:56:03;;;;;;;3.83;2.28;;;29.80;62.70;;;;;;4993098;28;20204;-67
2023/06/04 09:58:29;;;;;;;2.58;2.38;;;29.80;65.80;;;;;;4993551;28;20169;-67
2023/06/04 10:00:59;;;;;;;2.53;2.38;;;29.60;67.60;;;;;;4993048;28;20172;-67
2023/06/04 10:03:30;;;;;;;3.08;2.78;;;29.60;62.60;;;;;;4993772;28;20236;-67
2023/06/04 10:05:57;;;;;;;2.53;2.42;;;29.70;63.90;;;;;;4992739;28;20259;-67
2023/06/04 10:08:24;;;;;;;3.30;3.03;;;29.50;61.50;;;;;;4993526;28;20177;-67
2023/06/04 10:10:52;;;;;;;3.15;2.83;;;29.70;64.50;;;;;;4990342;28;20169;-67
2023/06/04 10:13:19;;;;;;;3.55;3.35;;;30.00;72.00;;;;;;4993172;28;20615;-68
2023/06/04 10:15:46;;;;;;;4.00;2.80;;;30.20;62.30;;;;;;4993143;28;20219;-67
2023/06/04 10:18:14;;;;;;;3.40;2.80;;;30.20;63.70;;;;;;4992871;28;20243;-67
2023/06/04 10:20:41;;;;;;;2.85;2.65;;;30.10;60.80;;;;;;4992014;28;20161;-67
2023/06/04 10:23:07;;;;;;;2.97;2.78;;;29.70;60.30;;;;;;4992985;28;20188;-67
2023/06/04 10:25:35;;;;;;;3.28;3.08;;;29.70;65.60;;;;;;4992793;28;20191;-67
2023/06/04 10:28:01;;;;;;;3.42;3.22;;;29.80;59.10;;;;;;4992741;28;20327;-67
2023/06/04 10:30:27;;;;;;;3.40;3.20;;;30.20;62.10;;;;;;4992380;28;20627;-68
2023/06/04 10:32:53;;;;;;;4.05;2.75;;;30.70;67.10;;;;;;4991723;28;20259;-67
2023/06/04 10:35:35;;;;;;;2.75;2.53;;;30.80;61.10;;;;;;4992570;28;20670;-68
2023/06/04 10:38:13;;;;;;;5.95;3.15;;;30.40;59.00;;;;;;4992467;28;20196;-67
2023/06/04 10:40:39;;;;;;;2.88;2.67;;;30.20;62.40;;;;;;4992387;28;20561;-67
2023/06/04 10:43:10;;;;;;;3.35;3.05;;;30.30;64.90;;;;;;4990738;28;20773;-67
2023/06/04 10:45:36;;;;;;;3.35;3.15;;;30.50;58.20;;;;;;4992280;28;20718;-67
2023/06/04 10:48:03;;;;;;;3.22;2.97;;;30.60;63.90;;;;;;4992609;28;20251;-68
2023/06/04 10:50:29;;;;;;;3.00;2.80;;;30.90;63.70;;;;;;4992509;28;20308;-67
2023/06/04 10:52:57;;;;;;;3.92;3.00;;;30.80;58.80;;;;;;4992358;28;20259;-67
2023/06/04 10:55:23;;;;;;;3.95;2.58;;;30.60;57.70;;;;;;4992584;28;20200;-67
2023/06/04 10:57:57;;;;;;;3.28;2.70;;;30.50;62.70;;;;;;4992057;28;20231;-67
2023/06/04 11:00:34;;;;;;;3.05;2.75;;;30.40;56.20;;;;;;4992071;28;20643;-67
2023/06/04 11:03:00;;;;;;;3.00;2.70;;;30.40;56.70;;;;;;4992295;28;20172;-68
2023/06/04 11:05:36;;;;;;;3.22;2.75;;;30.70;56.80;;;;;;4992204;28;20173;-67
2023/06/04 11:08:04;;;;;;;3.10;2.90;;;30.90;55.30;;;;;;4991965;28;20172;-67
2023/06/04 11:10:38;;;;;;;2.72;2.53;;;30.70;56.30;;;;;;4991785;28;20164;-67
2023/06/04 11:13:04;;;;;;;3.72;3.53;;;30.40;58.90;;;;;;4991676;28;20542;-67
2023/06/04 11:15:43;;;;;;;2.70;2.50;;;30.20;57.90;;;;;;4990208;28;20667;-67
2023/06/04 11:18:17;;;;;;;4.65;3.13;;;29.90;64.30;;;;;;4992469;28;20685;-67
2023/06/04 11:20:45;;;;;;;3.55;3.35;;;29.70;54.20;;;;;;4991855;28;20171;-68
2023/06/04 11:23:12;;;;;;;3.75;3.17;;;29.90;54.30;;;;;;4991088;28;20173;-67
2023/06/04 11:25:38;;;;;;;2.72;2.53;;;30.30;60.10;;;;;;4992129;28;20287;-67
2023/06/04 11:28:04;;;;;;;4.78;2.85;;;30.60;60.10;;;;;;4991968;28;20332;-67
2023/06/04 11:30:30;;;;;;;2.95;2.70;;;30.50;60.30;;;;;;4991853;28;20177;-68
2023/06/04 11:33:05;;;;;;;4.40;2.38;;;30.70;54.00;;;;;;4992032;28;20650;-67
2023/06/04 11:35:39;;;;;;;2.50;2.30;;;31.10;58.80;;;;;;4991910;28;20200;-68
2023/06/04 11:38:05;;;;;;;3.00;2.80;;;31.40;59.60;;;;;;4992033;28;20476;-67
2023/06/04 11:40:30;;;;;;;2.70;2.50;;;31.90;56.80;;;;;;4991926;28;20184;-67
2023/06/04 11:42:56;;;;;;;2.80;2.60;;;32.30;58.20;;;;;;4992790;28;20661;-67
2023/06/04 11:45:22;;;;;;;2.92;2.72;;;32.40;52.80;;;;;;4996071;28;20176;-67
2023/06/04 11:47:51;;;;;;;2.45;2.25;;;32.00;52.50;;;;;;4993741;28;20180;-67
2023/06/04 11:50:17;;;;;;;2.45;2.25;;;31.90;56.30;;;;;;4995725;28;20180;-67
2023/06/04 11:52:43;;;;;;;4.68;2.78;;;31.80;55.50;;;;;;4995999;28;20589;-67
2023/06/04 11:55:12;;;;;;;2.65;2.30;;;32.00;58.10;;;;;;4995483;28;20547;-67
2023/06/04 11:57:39;;;;;;;2.80;2.60;;;32.10;57.70;;;;;;4994909;28;20463;-67
2023/06/04 12:00:09;;;;;;;2.92;2.63;;;32.30;53.60;;;;;;4976024;28;20188;-67
2023/06/04 12:02:52;;;;;;;2.70;2.45;;;32.10;54.10;;;;;;4976394;28;20652;-67
2023/06/04 12:05:19;;;;;;;2.78;2.58;;;32.20;55.50;;;;;;4976293;28;20205;-68
2023/06/04 12:07:45;;;;;;;2.78;2.58;;;32.00;54.80;;;;;;4976188;28;20224;-65
2023/06/04 12:10:14;;;;;;;3.95;3.20;;;31.90;59.00;;;;;;4984673;28;20208;-66
2023/06/04 12:12:40;;;;;;;5.93;3.28;;;31.80;64.30;;;;;;4995756;28;20169;-66
2023/06/04 12:15:07;;;;;;;3.88;3.58;;;31.70;56.90;;;;;;4995332;28;20200;-65
2023/06/04 12:17:33;;;;;;;2.80;2.60;;;31.20;59.90;;;;;;4995444;28;20216;-66
2023/06/04 12:19:58;;;;;;;3.38;3.08;;;31.20;57.40;;;;;;4992397;28;20211;-66
2023/06/04 12:22:26;;;;;;;2.78;2.58;;;31.50;56.30;;;;;;4995626;28;20669;-67
2023/06/04 12:24:53;;;;;;;2.97;2.67;;;31.70;55.40;;;;;;4995148;28;20636;-67
2023/06/04 12:27:21;;;;;;;3.40;3.20;;;31.40;59.90;;;;;;4995353;28;20212;-67
2023/06/04 12:30:04;;;;;;;3.42;2.50;;;31.40;56.00;;;;;;4995004;28;20638;-67
2023/06/04 12:32:30;;;;;;;2.70;2.50;;;31.60;55.10;;;;;;4995214;28;20184;-67
2023/06/04 12:34:56;;;;;;;2.78;2.58;;;31.30;54.30;;;;;;4994301;28;20259;-66
2023/06/04 12:37:22;;;;;;;5.05;4.65;;;31.10;57.70;;;;;;4995268;28;20288;-66
2023/06/04 12:39:48;;;;;;;3.47;3.17;;;31.10;60.30;;;;;;4995079;28;20184;-66
2023/06/04 12:42:14;;;;;;;3.67;3.33;;;30.80;60.40;;;;;;4995369;28;20635;-66
2023/06/04 12:44:40;;;;;;;4.07;3.45;;;30.60;60.70;;;;;;4995394;28;20537;-67
2023/06/04 12:47:07;;;;;;;4.57;3.75;;;30.70;63.20;;;;;;4995268;28;20595;-67
2023/06/04 12:49:33;;;;;;;5.07;4.03;;;30.80;59.70;;;;;;4995612;28;20203;-67